East Coulee, Canada
Current Conditions -  °F | °C
As of 7:42 AM on Friday 28 Nov 2014 (Local Time) from CYYC Reporting Station
Blowing Snow Blowing Snow  
Wind Chill: -29°   Ceiling: 2200
Heat Index: -4°   Visibility: 3mi
Dew Point: -9°   Wind: 23mph
Humidity: 78%   Direction: 350°N
Pressure: 29.6"   Gusts: NA
Location:  51.33°N, 112.48°W
Report Text: CYYC 281442Z 35020KT 3SM BLSN SCT014 OVC022 M20/M23 A2960 RMK SC3SC5 SLP109
Loading
Personal Weather Stations






























Interactive Weather Map New forecast layout! Learn more

10-Day Weather Forecast

Advertisements
Track Severe Weather on mobile